Estación Meteorológica Peña el Pijo (Robertgarden) [ 06/14/24 08:22:56 CEST ]

Fecha Hora Presion(HPa) Temp (°C) Humedad % Rocio (°C) Viento ( m/s) Direccion Lluvia 1Hora(mm) Lluvia 24H(mm) LLuvia Total(mm)
2009-Jul-28 01:01:16 1016.200 18.4 33 1.8         336.18
2009-Jul-28 02:01:17 1016.200 18.2 32 1.2         336.18
2009-Jul-28 03:03:14 1016.100 17.6 33 1.0         336.18
2009-Jul-28 04:01:12 1015.700 15.8 39 1.8         336.18
2009-Jul-28 05:01:14 1015.700 14.4 42 1.6         336.18
2009-Jul-28 06:01:11 1015.900 13.1 46 1.6         336.18
2009-Jul-28 07:01:13 1016.200 11.6 52 2.0         336.18
2009-Jul-28 08:01:14 1016.400 12.1 55 3.3         336.18
2009-Jul-28 09:01:16 1016.600 18.0 45 5.8         336.18
2009-Jul-28 10:01:11 1016.600 24.8 42 11.0         336.18
2009-Jul-28 11:01:26 1016.400 27.9 39 12.7 0.6 NE     336.18
2009-Jul-28 12:01:14 1016.400 31.8 31 12.6         336.18
2009-Jul-28 13:01:14 1016.200 35.2 23 10.7         336.18
2009-Jul-28 14:01:15 1016.000 37.8 10 1.0         336.18
2009-Jul-28 15:01:13 1016.000 37.6 - -         336.18
2009-Jul-28 16:01:10 1015.700 38.3 - - 1.9 WSW     336.18
2009-Jul-28 17:01:14 1015.800 38.6 - - 1.3 ESE     336.18
2009-Jul-28 18:01:17 1015.800 37.2 - -         336.18
2009-Jul-28 19:01:11 1015.900 35.3 10 -0.9         336.18
2009-Jul-28 20:01:16 1016.000 33.4 10 -2.3         336.18
2009-Jul-28 21:01:14 1016.400 31.0 13 -1.2 1.2 NE     336.18
2009-Jul-28 22:01:16 1017.000 26.4 17 -1.1         336.18
2009-Jul-28 23:01:17 1017.900 21.9 27 1.9         336.18

Temperatura Máxima:38°    Temperatura Mínima:11°
Presión Máxima:1017.900 Hpa    Presión Mínima:1015.700 Hpa


Volver